Terminal Aerodrome Forecast
Issued by NWS Wilmington, OH

Current Version | Previous Version | Text Only | Print | Product List | Glossary Off
Versions: 1 2 3 4 5 6 7 8 9 10 11 12 13 14 15 16 17 18 19 20

000
FTUS41 KILN 010500 RRA
TAFCMH
TAF
KCMH 010543Z 0106/0206 11005KT 1 1/2SM -SN OVC015
      TEMPO 0109/0111 OVC008
     FM011500 19005KT 3SM -DZ OVC012
      TEMPO 0115/0119 2SM -DZ OVC008
     FM011900 27006KT 2SM -SN OVC008
      TEMPO 0121/0124 1/2SM SN
     FM020300 29008KT P6SM OVC012=

USA.gov is the U.S. government's official web portal to all federal, state and local government web resources and services.